sensor_id;sensor_type;location;lat;lon;timestamp;P1;durP1;ratioP1;P2;durP2;ratioP2
49310;SDS011;35177;45.900;5.946;2023-09-19T00:01:58;12.30;;;4.43;;
49310;SDS011;35177;45.900;5.946;2023-09-19T00:04:24;10.50;;;5.03;;
49310;SDS011;35177;45.900;5.946;2023-09-19T00:06:54;11.40;;;5.38;;
49310;SDS011;35177;45.900;5.946;2023-09-19T00:09:19;8.45;;;5.28;;
49310;SDS011;35177;45.900;5.946;2023-09-19T00:11:45;10.77;;;4.47;;
49310;SDS011;35177;45.900;5.946;2023-09-19T00:14:12;9.10;;;5.15;;
49310;SDS011;35177;45.900;5.946;2023-09-19T00:16:39;10.40;;;5.05;;
49310;SDS011;35177;45.900;5.946;2023-09-19T00:19:06;8.32;;;4.75;;
49310;SDS011;35177;45.900;5.946;2023-09-19T00:21:32;8.57;;;4.53;;
49310;SDS011;35177;45.900;5.946;2023-09-19T00:23:57;8.02;;;4.13;;
49310;SDS011;35177;45.900;5.946;2023-09-19T00:26:23;6.90;;;4.43;;
49310;SDS011;35177;45.900;5.946;2023-09-19T00:28:48;5.90;;;3.90;;
49310;SDS011;35177;45.900;5.946;2023-09-19T00:31:17;7.25;;;4.00;;
49310;SDS011;35177;45.900;5.946;2023-09-19T00:33:43;6.07;;;4.10;;
49310;SDS011;35177;45.900;5.946;2023-09-19T00:36:08;6.57;;;4.63;;
49310;SDS011;35177;45.900;5.946;2023-09-19T00:38:34;5.80;;;3.55;;
49310;SDS011;35177;45.900;5.946;2023-09-19T00:40:59;5.70;;;4.07;;
49310;SDS011;35177;45.900;5.946;2023-09-19T00:43:24;8.18;;;4.28;;
49310;SDS011;35177;45.900;5.946;2023-09-19T00:45:51;7.70;;;4.20;;
49310;SDS011;35177;45.900;5.946;2023-09-19T00:48:19;11.85;;;4.95;;
49310;SDS011;35177;45.900;5.946;2023-09-19T00:50:45;136.30;;;7.63;;
49310;SDS011;35177;45.900;5.946;2023-09-19T00:53:17;186.13;;;7.80;;
49310;SDS011;35177;45.900;5.946;2023-09-19T00:55:45;131.38;;;11.07;;
49310;SDS011;35177;45.900;5.946;2023-09-19T00:58:12;414.88;;;18.83;;
49310;SDS011;35177;45.900;5.946;2023-09-19T01:00:37;136.18;;;12.48;;
49310;SDS011;35177;45.900;5.946;2023-09-19T01:03:04;176.93;;;12.10;;
49310;SDS011;35177;45.900;5.946;2023-09-19T01:05:31;23.15;;;5.70;;
49310;SDS011;35177;45.900;5.946;2023-09-19T01:07:58;7.85;;;5.43;;
49310;SDS011;35177;45.900;5.946;2023-09-19T01:10:24;13.07;;;4.28;;
49310;SDS011;35177;45.900;5.946;2023-09-19T01:29:51;10.55;;;6.65;;
49310;SDS011;35177;45.900;5.946;2023-09-19T01:32:05;10.52;;;6.95;;
49310;SDS011;35177;45.900;5.946;2023-09-19T01:34:47;12.15;;;6.70;;
49310;SDS011;35177;45.900;5.946;2023-09-19T01:37:16;13.32;;;7.18;;
49310;SDS011;35177;45.900;5.946;2023-09-19T01:39:48;11.77;;;6.63;;
49310;SDS011;35177;45.900;5.946;2023-09-19T01:50:06;16.15;;;5.88;;
49310;SDS011;35177;45.900;5.946;2023-09-19T01:52:57;11.38;;;5.65;;
49310;SDS011;35177;45.900;5.946;2023-09-19T01:55:29;6.65;;;5.07;;
49310;SDS011;35177;45.900;5.946;2023-09-19T01:58:06;10.88;;;5.55;;
49310;SDS011;35177;45.900;5.946;2023-09-19T02:00:41;6.35;;;4.03;;
49310;SDS011;35177;45.900;5.946;2023-09-19T02:03:10;9.82;;;3.33;;
49310;SDS011;35177;45.900;5.946;2023-09-19T02:05:37;49.17;;;4.28;;
49310;SDS011;35177;45.900;5.946;2023-09-19T02:08:04;10.68;;;3.70;;
49310;SDS011;35177;45.900;5.946;2023-09-19T02:10:30;4.60;;;3.00;;
49310;SDS011;35177;45.900;5.946;2023-09-19T02:12:55;4.25;;;3.50;;
49310;SDS011;35177;45.900;5.946;2023-09-19T02:15:21;11.00;;;4.57;;
49310;SDS011;35177;45.900;5.946;2023-09-19T02:17:47;5.38;;;3.67;;
49310;SDS011;35177;45.900;5.946;2023-09-19T02:20:12;7.80;;;4.43;;
49310;SDS011;35177;45.900;5.946;2023-09-19T02:22:42;4.93;;;3.75;;
49310;SDS011;35177;45.900;5.946;2023-09-19T02:25:07;5.18;;;3.70;;
49310;SDS011;35177;45.900;5.946;2023-09-19T02:27:33;5.03;;;3.30;;
49310;SDS011;35177;45.900;5.946;2023-09-19T02:29:59;5.55;;;4.00;;
49310;SDS011;35177;45.900;5.946;2023-09-19T02:32:27;6.88;;;4.25;;
49310;SDS011;35177;45.900;5.946;2023-09-19T02:34:55;4.55;;;3.92;;
49310;SDS011;35177;45.900;5.946;2023-09-19T02:37:20;6.65;;;4.53;;
49310;SDS011;35177;45.900;5.946;2023-09-19T02:39:46;8.30;;;5.13;;
49310;SDS011;35177;45.900;5.946;2023-09-19T02:42:11;8.15;;;5.40;;
49310;SDS011;35177;45.900;5.946;2023-09-19T02:44:37;22.10;;;6.57;;
49310;SDS011;35177;45.900;5.946;2023-09-19T02:47:03;28.42;;;6.15;;
49310;SDS011;35177;45.900;5.946;2023-09-19T02:49:29;9.23;;;5.72;;
49310;SDS011;35177;45.900;5.946;2023-09-19T02:51:54;7.13;;;4.97;;
49310;SDS011;35177;45.900;5.946;2023-09-19T02:54:20;8.85;;;5.55;;
49310;SDS011;35177;45.900;5.946;2023-09-19T02:56:46;8.45;;;5.65;;
49310;SDS011;35177;45.900;5.946;2023-09-19T02:59:12;6.90;;;5.45;;
49310;SDS011;35177;45.900;5.946;2023-09-19T03:01:38;7.85;;;5.80;;
49310;SDS011;35177;45.900;5.946;2023-09-19T03:04:04;7.60;;;5.53;;
49310;SDS011;35177;45.900;5.946;2023-09-19T03:06:36;7.13;;;5.70;;
49310;SDS011;35177;45.900;5.946;2023-09-19T03:09:01;8.73;;;5.60;;
49310;SDS011;35177;45.900;5.946;2023-09-19T03:11:29;30.00;;;7.40;;
49310;SDS011;35177;45.900;5.946;2023-09-19T03:13:54;13.60;;;6.95;;
49310;SDS011;35177;45.900;5.946;2023-09-19T03:16:20;25.52;;;7.30;;
49310;SDS011;35177;45.900;5.946;2023-09-19T03:18:47;14.45;;;6.95;;
49310;SDS011;35177;45.900;5.946;2023-09-19T03:21:14;12.00;;;6.75;;
49310;SDS011;35177;45.900;5.946;2023-09-19T03:23:44;27.90;;;8.82;;
49310;SDS011;35177;45.900;5.946;2023-09-19T03:26:10;12.13;;;6.97;;
49310;SDS011;35177;45.900;5.946;2023-09-19T03:28:42;26.33;;;8.25;;
49310;SDS011;35177;45.900;5.946;2023-09-19T03:31:08;13.73;;;6.72;;
49310;SDS011;35177;45.900;5.946;2023-09-19T03:33:34;10.98;;;6.15;;
49310;SDS011;35177;45.900;5.946;2023-09-19T03:36:00;38.97;;;7.10;;
49310;SDS011;35177;45.900;5.946;2023-09-19T03:38:29;50.30;;;8.02;;
49310;SDS011;35177;45.900;5.946;2023-09-19T03:40:55;37.03;;;8.50;;
49310;SDS011;35177;45.900;5.946;2023-09-19T03:43:20;87.60;;;11.90;;
49310;SDS011;35177;45.900;5.946;2023-09-19T03:45:46;83.07;;;9.48;;
49310;SDS011;35177;45.900;5.946;2023-09-19T03:48:12;9.55;;;6.15;;
49310;SDS011;35177;45.900;5.946;2023-09-19T03:50:38;12.05;;;6.60;;
49310;SDS011;35177;45.900;5.946;2023-09-19T03:53:03;8.45;;;6.03;;
49310;SDS011;35177;45.900;5.946;2023-09-19T03:55:29;12.05;;;6.00;;
49310;SDS011;35177;45.900;5.946;2023-09-19T03:57:55;11.55;;;6.97;;
49310;SDS011;35177;45.900;5.946;2023-09-19T04:00:21;10.20;;;6.15;;
49310;SDS011;35177;45.900;5.946;2023-09-19T04:02:49;10.85;;;6.63;;
49310;SDS011;35177;45.900;5.946;2023-09-19T04:05:16;11.13;;;6.78;;
49310;SDS011;35177;45.900;5.946;2023-09-19T04:07:41;10.75;;;6.78;;
49310;SDS011;35177;45.900;5.946;2023-09-19T04:10:07;8.68;;;5.78;;
49310;SDS011;35177;45.900;5.946;2023-09-19T04:12:34;9.43;;;6.55;;
49310;SDS011;35177;45.900;5.946;2023-09-19T04:14:59;11.15;;;6.40;;
49310;SDS011;35177;45.900;5.946;2023-09-19T04:17:25;10.15;;;6.65;;
49310;SDS011;35177;45.900;5.946;2023-09-19T04:19:50;14.05;;;8.00;;
49310;SDS011;35177;45.900;5.946;2023-09-19T04:22:16;14.50;;;7.35;;
49310;SDS011;35177;45.900;5.946;2023-09-19T04:24:41;14.32;;;8.55;;
49310;SDS011;35177;45.900;5.946;2023-09-19T04:27:07;18.02;;;8.13;;
49310;SDS011;35177;45.900;5.946;2023-09-19T04:29:33;29.25;;;8.60;;
49310;SDS011;35177;45.900;5.946;2023-09-19T04:31:58;30.98;;;8.20;;
49310;SDS011;35177;45.900;5.946;2023-09-19T04:34:24;25.60;;;8.95;;
49310;SDS011;35177;45.900;5.946;2023-09-19T04:36:49;34.33;;;9.70;;
49310;SDS011;35177;45.900;5.946;2023-09-19T04:39:15;14.52;;;7.90;;
49310;SDS011;35177;45.900;5.946;2023-09-19T04:41:41;15.45;;;9.00;;
49310;SDS011;35177;45.900;5.946;2023-09-19T04:44:07;17.70;;;9.13;;
49310;SDS011;35177;45.900;5.946;2023-09-19T04:46:33;17.52;;;9.18;;
49310;SDS011;35177;45.900;5.946;2023-09-19T04:48:59;14.95;;;8.27;;
49310;SDS011;35177;45.900;5.946;2023-09-19T04:51:24;15.00;;;8.88;;
49310;SDS011;35177;45.900;5.946;2023-09-19T04:53:51;14.15;;;8.55;;
49310;SDS011;35177;45.900;5.946;2023-09-19T04:56:17;16.15;;;8.40;;
49310;SDS011;35177;45.900;5.946;2023-09-19T04:58:42;14.82;;;8.15;;
49310;SDS011;35177;45.900;5.946;2023-09-19T05:01:08;12.77;;;8.20;;
49310;SDS011;35177;45.900;5.946;2023-09-19T05:03:36;13.82;;;7.75;;
49310;SDS011;35177;45.900;5.946;2023-09-19T05:06:02;12.02;;;7.72;;
49310;SDS011;35177;45.900;5.946;2023-09-19T05:08:29;10.55;;;7.57;;
49310;SDS011;35177;45.900;5.946;2023-09-19T05:10:54;16.48;;;8.38;;
49310;SDS011;35177;45.900;5.946;2023-09-19T05:13:21;15.48;;;8.32;;
49310;SDS011;35177;45.900;5.946;2023-09-19T05:15:48;15.25;;;7.75;;
49310;SDS011;35177;45.900;5.946;2023-09-19T05:18:15;12.90;;;7.93;;
49310;SDS011;35177;45.900;5.946;2023-09-19T05:20:40;13.15;;;7.47;;
49310;SDS011;35177;45.900;5.946;2023-09-19T05:23:07;15.32;;;7.80;;
49310;SDS011;35177;45.900;5.946;2023-09-19T05:25:34;14.68;;;7.63;;
49310;SDS011;35177;45.900;5.946;2023-09-19T05:28:04;15.43;;;8.52;;
49310;SDS011;35177;45.900;5.946;2023-09-19T05:30:34;14.30;;;8.23;;
49310;SDS011;35177;45.900;5.946;2023-09-19T05:33:08;14.75;;;8.20;;
49310;SDS011;35177;45.900;5.946;2023-09-19T05:35:34;12.23;;;8.18;;
49310;SDS011;35177;45.900;5.946;2023-09-19T05:38:04;15.80;;;7.93;;
49310;SDS011;35177;45.900;5.946;2023-09-19T05:40:33;11.15;;;7.70;;
49310;SDS011;35177;45.900;5.946;2023-09-19T05:43:00;9.25;;;7.03;;
49310;SDS011;35177;45.900;5.946;2023-09-19T05:45:25;11.52;;;7.47;;
49310;SDS011;35177;45.900;5.946;2023-09-19T05:47:52;10.90;;;6.32;;
49310;SDS011;35177;45.900;5.946;2023-09-19T05:50:29;14.45;;;7.68;;
49310;SDS011;35177;45.900;5.946;2023-09-19T05:52:55;16.00;;;7.88;;
49310;SDS011;35177;45.900;5.946;2023-09-19T05:55:23;16.30;;;8.50;;
49310;SDS011;35177;45.900;5.946;2023-09-19T05:57:51;13.85;;;8.27;;
49310;SDS011;35177;45.900;5.946;2023-09-19T06:00:21;12.65;;;7.75;;
49310;SDS011;35177;45.900;5.946;2023-09-19T06:02:51;15.20;;;8.40;;
49310;SDS011;35177;45.900;5.946;2023-09-19T06:05:20;17.25;;;8.38;;
49310;SDS011;35177;45.900;5.946;2023-09-19T06:07:46;17.10;;;8.43;;
49310;SDS011;35177;45.900;5.946;2023-09-19T06:10:12;16.70;;;9.60;;
49310;SDS011;35177;45.900;5.946;2023-09-19T06:12:40;17.33;;;9.35;;
49310;SDS011;35177;45.900;5.946;2023-09-19T06:15:10;15.48;;;9.25;;
49310;SDS011;35177;45.900;5.946;2023-09-19T06:17:48;15.38;;;9.10;;
49310;SDS011;35177;45.900;5.946;2023-09-19T06:20:15;15.07;;;9.20;;
49310;SDS011;35177;45.900;5.946;2023-09-19T06:22:42;13.45;;;8.50;;
49310;SDS011;35177;45.900;5.946;2023-09-19T06:25:11;12.63;;;8.38;;
49310;SDS011;35177;45.900;5.946;2023-09-19T06:27:38;15.75;;;8.10;;
49310;SDS011;35177;45.900;5.946;2023-09-19T06:30:07;12.07;;;7.78;;
49310;SDS011;35177;45.900;5.946;2023-09-19T06:32:33;10.40;;;7.28;;
49310;SDS011;35177;45.900;5.946;2023-09-19T06:34:59;14.35;;;7.93;;
49310;SDS011;35177;45.900;5.946;2023-09-19T06:37:27;15.73;;;8.52;;
49310;SDS011;35177;45.900;5.946;2023-09-19T06:39:53;12.35;;;7.80;;
49310;SDS011;35177;45.900;5.946;2023-09-19T06:42:18;14.70;;;7.72;;
49310;SDS011;35177;45.900;5.946;2023-09-19T06:44:44;11.90;;;7.53;;
49310;SDS011;35177;45.900;5.946;2023-09-19T06:47:09;11.88;;;6.88;;
49310;SDS011;35177;45.900;5.946;2023-09-19T06:49:35;14.45;;;7.95;;
49310;SDS011;35177;45.900;5.946;2023-09-19T06:52:02;11.32;;;6.60;;
49310;SDS011;35177;45.900;5.946;2023-09-19T06:54:28;12.75;;;6.50;;
49310;SDS011;35177;45.900;5.946;2023-09-19T06:56:56;10.60;;;7.03;;
49310;SDS011;35177;45.900;5.946;2023-09-19T06:59:23;9.73;;;7.47;;
49310;SDS011;35177;45.900;5.946;2023-09-19T07:01:49;10.38;;;7.85;;
49310;SDS011;35177;45.900;5.946;2023-09-19T07:04:16;10.75;;;6.57;;
49310;SDS011;35177;45.900;5.946;2023-09-19T07:06:42;12.50;;;7.15;;
49310;SDS011;35177;45.900;5.946;2023-09-19T07:09:07;9.65;;;7.25;;
49310;SDS011;35177;45.900;5.946;2023-09-19T07:11:33;10.38;;;7.22;;
49310;SDS011;35177;45.900;5.946;2023-09-19T07:13:59;12.65;;;8.25;;
49310;SDS011;35177;45.900;5.946;2023-09-19T07:16:24;10.43;;;7.57;;
49310;SDS011;35177;45.900;5.946;2023-09-19T07:18:54;13.75;;;8.07;;
49310;SDS011;35177;45.900;5.946;2023-09-19T07:21:21;10.90;;;7.60;;
49310;SDS011;35177;45.900;5.946;2023-09-19T07:23:47;11.25;;;8.02;;
49310;SDS011;35177;45.900;5.946;2023-09-19T07:26:13;13.55;;;8.50;;
49310;SDS011;35177;45.900;5.946;2023-09-19T07:28:38;10.48;;;7.80;;
49310;SDS011;35177;45.900;5.946;2023-09-19T07:31:04;10.77;;;8.00;;
49310;SDS011;35177;45.900;5.946;2023-09-19T07:33:32;9.52;;;7.40;;
49310;SDS011;35177;45.900;5.946;2023-09-19T07:35:57;13.18;;;8.48;;
49310;SDS011;35177;45.900;5.946;2023-09-19T07:38:23;12.35;;;8.55;;
49310;SDS011;35177;45.900;5.946;2023-09-19T07:40:49;10.95;;;8.15;;
49310;SDS011;35177;45.900;5.946;2023-09-19T07:43:15;12.02;;;8.57;;
49310;SDS011;35177;45.900;5.946;2023-09-19T07:45:40;11.55;;;9.05;;
49310;SDS011;35177;45.900;5.946;2023-09-19T07:48:06;11.77;;;8.35;;
49310;SDS011;35177;45.900;5.946;2023-09-19T07:50:39;19.70;;;10.27;;
49310;SDS011;35177;45.900;5.946;2023-09-19T07:53:05;12.93;;;8.70;;
49310;SDS011;35177;45.900;5.946;2023-09-19T07:55:31;13.48;;;8.15;;
49310;SDS011;35177;45.900;5.946;2023-09-19T07:57:58;11.18;;;8.52;;
49310;SDS011;35177;45.900;5.946;2023-09-19T08:00:25;12.88;;;9.15;;
49310;SDS011;35177;45.900;5.946;2023-09-19T08:02:50;13.45;;;8.88;;
49310;SDS011;35177;45.900;5.946;2023-09-19T08:05:17;15.10;;;9.32;;
49310;SDS011;35177;45.900;5.946;2023-09-19T08:07:44;15.50;;;10.55;;
49310;SDS011;35177;45.900;5.946;2023-09-19T08:10:13;13.65;;;10.85;;
49310;SDS011;35177;45.900;5.946;2023-09-19T08:12:41;10.02;;;7.25;;
49310;SDS011;35177;45.900;5.946;2023-09-19T08:15:14;10.10;;;7.13;;
49310;SDS011;35177;45.900;5.946;2023-09-19T08:17:44;11.57;;;7.57;;
49310;SDS011;35177;45.900;5.946;2023-09-19T08:20:10;8.23;;;6.82;;
49310;SDS011;35177;45.900;5.946;2023-09-19T08:22:46;8.18;;;6.50;;
49310;SDS011;35177;45.900;5.946;2023-09-19T08:25:17;8.90;;;7.20;;
49310;SDS011;35177;45.900;5.946;2023-09-19T08:27:44;10.45;;;6.70;;
49310;SDS011;35177;45.900;5.946;2023-09-19T08:30:17;9.98;;;6.45;;
49310;SDS011;35177;45.900;5.946;2023-09-19T08:32:45;8.20;;;6.03;;
49310;SDS011;35177;45.900;5.946;2023-09-19T08:35:11;6.47;;;5.22;;
49310;SDS011;35177;45.900;5.946;2023-09-19T08:37:37;6.93;;;5.82;;
49310;SDS011;35177;45.900;5.946;2023-09-19T08:40:02;7.13;;;5.95;;
49310;SDS011;35177;45.900;5.946;2023-09-19T08:42:28;7.65;;;5.10;;
49310;SDS011;35177;45.900;5.946;2023-09-19T08:44:54;5.10;;;4.60;;
49310;SDS011;35177;45.900;5.946;2023-09-19T08:47:33;6.78;;;4.82;;
49310;SDS011;35177;45.900;5.946;2023-09-19T08:50:08;5.18;;;3.80;;
49310;SDS011;35177;45.900;5.946;2023-09-19T08:52:43;4.28;;;3.88;;
49310;SDS011;35177;45.900;5.946;2023-09-19T08:55:12;4.65;;;3.17;;
49310;SDS011;35177;45.900;5.946;2023-09-19T08:57:45;2.33;;;2.05;;
49310;SDS011;35177;45.900;5.946;2023-09-19T09:00:14;2.83;;;2.60;;
49310;SDS011;35177;45.900;5.946;2023-09-19T09:02:42;3.28;;;2.53;;
49310;SDS011;35177;45.900;5.946;2023-09-19T09:05:11;2.83;;;2.30;;
49310;SDS011;35177;45.900;5.946;2023-09-19T09:07:37;4.38;;;2.80;;
49310;SDS011;35177;45.900;5.946;2023-09-19T09:10:03;4.97;;;2.50;;
49310;SDS011;35177;45.900;5.946;2023-09-19T09:12:30;3.28;;;2.00;;
49310;SDS011;35177;45.900;5.946;2023-09-19T09:14:55;3.95;;;2.50;;
49310;SDS011;35177;45.900;5.946;2023-09-19T09:17:22;3.90;;;2.50;;
49310;SDS011;35177;45.900;5.946;2023-09-19T09:19:49;3.38;;;2.67;;
49310;SDS011;35177;45.900;5.946;2023-09-19T09:22:17;4.47;;;2.38;;
49310;SDS011;35177;45.900;5.946;2023-09-19T09:27:19;2.47;;;2.10;;
49310;SDS011;35177;45.900;5.946;2023-09-19T09:29:48;3.17;;;2.38;;
49310;SDS011;35177;45.900;5.946;2023-09-19T09:34:43;2.10;;;1.90;;
49310;SDS011;35177;45.900;5.946;2023-09-19T09:37:16;3.15;;;1.83;;
49310;SDS011;35177;45.900;5.946;2023-09-19T09:39:54;2.88;;;2.40;;
49310;SDS011;35177;45.900;5.946;2023-09-19T09:42:31;2.20;;;2.00;;
49310;SDS011;35177;45.900;5.946;2023-09-19T09:47:46;2.25;;;1.92;;
49310;SDS011;35177;45.900;5.946;2023-09-19T09:50:27;2.20;;;2.00;;
49310;SDS011;35177;45.900;5.946;2023-09-19T09:53:29;2.13;;;1.90;;
49310;SDS011;35177;45.900;5.946;2023-09-19T09:56:06;2.72;;;2.20;;
49310;SDS011;35177;45.900;5.946;2023-09-19T09:58:52;3.03;;;2.35;;
49310;SDS011;35177;45.900;5.946;2023-09-19T10:01:20;2.42;;;1.95;;
49310;SDS011;35177;45.900;5.946;2023-09-19T10:03:51;3.85;;;2.50;;
49310;SDS011;35177;45.900;5.946;2023-09-19T10:06:22;3.30;;;2.05;;
49310;SDS011;35177;45.900;5.946;2023-09-19T10:09:01;3.53;;;2.10;;
49310;SDS011;35177;45.900;5.946;2023-09-19T10:14:15;3.00;;;2.00;;
49310;SDS011;35177;45.900;5.946;2023-09-19T10:16:47;4.38;;;1.90;;
49310;SDS011;35177;45.900;5.946;2023-09-19T10:19:15;2.45;;;1.80;;
49310;SDS011;35177;45.900;5.946;2023-09-19T10:21:50;2.80;;;1.58;;
49310;SDS011;35177;45.900;5.946;2023-09-19T10:24:18;2.28;;;1.70;;
49310;SDS011;35177;45.900;5.946;2023-09-19T10:26:45;8.00;;;1.33;;
49310;SDS011;35177;45.900;5.946;2023-09-19T10:29:13;1.65;;;1.55;;
49310;SDS011;35177;45.900;5.946;2023-09-19T10:31:41;2.20;;;1.25;;
49310;SDS011;35177;45.900;5.946;2023-09-19T10:34:12;1.35;;;1.25;;
49310;SDS011;35177;45.900;5.946;2023-09-19T10:36:40;3.20;;;1.60;;
49310;SDS011;35177;45.900;5.946;2023-09-19T10:39:13;1.75;;;1.50;;
49310;SDS011;35177;45.900;5.946;2023-09-19T10:41:53;1.70;;;1.60;;
49310;SDS011;35177;45.900;5.946;2023-09-19T10:44:23;2.03;;;1.40;;
49310;SDS011;35177;45.900;5.946;2023-09-19T10:46:53;2.92;;;1.38;;
49310;SDS011;35177;45.900;5.946;2023-09-19T10:49:20;1.63;;;1.00;;
49310;SDS011;35177;45.900;5.946;2023-09-19T10:51:50;1.40;;;1.30;;
49310;SDS011;35177;45.900;5.946;2023-09-19T10:54:21;2.33;;;1.25;;
49310;SDS011;35177;45.900;5.946;2023-09-19T10:56:51;3.38;;;1.30;;
49310;SDS011;35177;45.900;5.946;2023-09-19T10:59:19;1.67;;;1.23;;
49310;SDS011;35177;45.900;5.946;2023-09-19T11:01:52;1.98;;;1.42;;
49310;SDS011;35177;45.900;5.946;2023-09-19T11:04:23;3.72;;;1.60;;
49310;SDS011;35177;45.900;5.946;2023-09-19T11:07:08;1.98;;;1.30;;
49310;SDS011;35177;45.900;5.946;2023-09-19T11:14:58;1.92;;;1.20;;
49310;SDS011;35177;45.900;5.946;2023-09-19T11:17:30;1.92;;;1.20;;
49310;SDS011;35177;45.900;5.946;2023-09-19T11:30:50;1.70;;;1.23;;
49310;SDS011;35177;45.900;5.946;2023-09-19T11:33:23;2.13;;;1.00;;
49310;SDS011;35177;45.900;5.946;2023-09-19T11:36:00;1.20;;;1.00;;
49310;SDS011;35177;45.900;5.946;2023-09-19T11:41:51;1.25;;;1.10;;
49310;SDS011;35177;45.900;5.946;2023-09-19T11:49:17;1.40;;;1.00;;
49310;SDS011;35177;45.900;5.946;2023-09-19T11:51:49;1.85;;;1.08;;
49310;SDS011;35177;45.900;5.946;2023-09-19T11:54:19;1.52;;;1.20;;
49310;SDS011;35177;45.900;5.946;2023-09-19T11:56:50;1.73;;;1.23;;
49310;SDS011;35177;45.900;5.946;2023-09-19T11:59:23;2.47;;;1.00;;
49310;SDS011;35177;45.900;5.946;2023-09-19T12:01:53;3.22;;;1.30;;
49310;SDS011;35177;45.900;5.946;2023-09-19T12:04:41;1.70;;;1.20;;
49310;SDS011;35177;45.900;5.946;2023-09-19T12:07:09;1.25;;;1.15;;
49310;SDS011;35177;45.900;5.946;2023-09-19T12:09:42;3.08;;;1.23;;
49310;SDS011;35177;45.900;5.946;2023-09-19T12:12:13;4.82;;;1.10;;
49310;SDS011;35177;45.900;5.946;2023-09-19T12:14:49;2.13;;;1.15;;
49310;SDS011;35177;45.900;5.946;2023-09-19T12:17:16;1.63;;;1.00;;
49310;SDS011;35177;45.900;5.946;2023-09-19T12:19:51;0.70;;;0.70;;
49310;SDS011;35177;45.900;5.946;2023-09-19T12:22:21;1.05;;;0.85;;
49310;SDS011;35177;45.900;5.946;2023-09-19T12:24:46;2.08;;;1.00;;
49310;SDS011;35177;45.900;5.946;2023-09-19T12:27:13;2.40;;;1.08;;
49310;SDS011;35177;45.900;5.946;2023-09-19T12:29:44;1.90;;;0.88;;
49310;SDS011;35177;45.900;5.946;2023-09-19T12:32:11;1.70;;;1.10;;
49310;SDS011;35177;45.900;5.946;2023-09-19T12:34:37;2.25;;;1.20;;
49310;SDS011;35177;45.900;5.946;2023-09-19T12:37:11;1.65;;;1.00;;
49310;SDS011;35177;45.900;5.946;2023-09-19T12:39:39;1.20;;;1.10;;
49310;SDS011;35177;45.900;5.946;2023-09-19T12:42:14;2.50;;;1.00;;
49310;SDS011;35177;45.900;5.946;2023-09-19T12:44:44;3.25;;;1.10;;
49310;SDS011;35177;45.900;5.946;2023-09-19T12:47:18;1.15;;;0.98;;
49310;SDS011;35177;45.900;5.946;2023-09-19T12:52:51;2.13;;;1.23;;
49310;SDS011;35177;45.900;5.946;2023-09-19T12:55:28;1.58;;;0.95;;
49310;SDS011;35177;45.900;5.946;2023-09-19T13:00:45;1.52;;;1.00;;
49310;SDS011;35177;45.900;5.946;2023-09-19T13:03:11;1.50;;;0.80;;
49310;SDS011;35177;45.900;5.946;2023-09-19T13:06:02;1.27;;;0.98;;
49310;SDS011;35177;45.900;5.946;2023-09-19T13:08:34;1.83;;;1.05;;
49310;SDS011;35177;45.900;5.946;2023-09-19T13:13:39;2.45;;;1.13;;
49310;SDS011;35177;45.900;5.946;2023-09-19T13:16:07;4.95;;;1.27;;
49310;SDS011;35177;45.900;5.946;2023-09-19T13:18:42;1.30;;;1.10;;
49310;SDS011;35177;45.900;5.946;2023-09-19T13:21:10;1.25;;;1.00;;
49310;SDS011;35177;45.900;5.946;2023-09-19T13:23:51;2.78;;;0.98;;
49310;SDS011;35177;45.900;5.946;2023-09-19T13:26:18;2.05;;;0.85;;
49310;SDS011;35177;45.900;5.946;2023-09-19T13:28:44;2.58;;;1.00;;
49310;SDS011;35177;45.900;5.946;2023-09-19T13:31:09;3.92;;;1.27;;
49310;SDS011;35177;45.900;5.946;2023-09-19T13:33:42;1.90;;;0.90;;
49310;SDS011;35177;45.900;5.946;2023-09-19T13:36:08;0.80;;;0.80;;
49310;SDS011;35177;45.900;5.946;2023-09-19T13:38:34;1.02;;;0.90;;
49310;SDS011;35177;45.900;5.946;2023-09-19T13:41:00;2.35;;;1.00;;
49310;SDS011;35177;45.900;5.946;2023-09-19T13:43:27;1.92;;;1.42;;
49310;SDS011;35177;45.900;5.946;2023-09-19T13:45:54;1.90;;;0.93;;
49310;SDS011;35177;45.900;5.946;2023-09-19T13:48:20;3.85;;;1.05;;
49310;SDS011;35177;45.900;5.946;2023-09-19T13:50:47;2.05;;;0.95;;
49310;SDS011;35177;45.900;5.946;2023-09-19T13:53:13;3.10;;;0.90;;
49310;SDS011;35177;45.900;5.946;2023-09-19T13:55:39;2.90;;;0.77;;
49310;SDS011;35177;45.900;5.946;2023-09-19T13:58:05;1.85;;;0.70;;
49310;SDS011;35177;45.900;5.946;2023-09-19T14:00:31;1.75;;;0.82;;
49310;SDS011;35177;45.900;5.946;2023-09-19T14:02:59;2.05;;;1.00;;
49310;SDS011;35177;45.900;5.946;2023-09-19T14:05:26;2.58;;;0.85;;
49310;SDS011;35177;45.900;5.946;2023-09-19T14:07:53;0.93;;;0.70;;
49310;SDS011;35177;45.900;5.946;2023-09-19T14:10:21;2.15;;;0.85;;
49310;SDS011;35177;45.900;5.946;2023-09-19T14:12:46;3.67;;;0.90;;
49310;SDS011;35177;45.900;5.946;2023-09-19T14:15:12;1.83;;;0.90;;
49310;SDS011;35177;45.900;5.946;2023-09-19T14:17:38;3.22;;;1.20;;
49310;SDS011;35177;45.900;5.946;2023-09-19T14:20:04;2.45;;;1.05;;
49310;SDS011;35177;45.900;5.946;2023-09-19T14:22:32;2.70;;;1.25;;
49310;SDS011;35177;45.900;5.946;2023-09-19T14:24:58;1.77;;;0.98;;
49310;SDS011;35177;45.900;5.946;2023-09-19T14:27:24;2.53;;;0.95;;
49310;SDS011;35177;45.900;5.946;2023-09-19T14:29:50;1.38;;;0.70;;
49310;SDS011;35177;45.900;5.946;2023-09-19T14:32:16;1.25;;;0.80;;
49310;SDS011;35177;45.900;5.946;2023-09-19T14:34:42;2.40;;;1.08;;
49310;SDS011;35177;45.900;5.946;2023-09-19T14:37:09;1.67;;;0.93;;
49310;SDS011;35177;45.900;5.946;2023-09-19T14:39:36;1.30;;;1.00;;
49310;SDS011;35177;45.900;5.946;2023-09-19T14:42:03;0.68;;;0.68;;
49310;SDS011;35177;45.900;5.946;2023-09-19T14:44:29;3.05;;;1.05;;
49310;SDS011;35177;45.900;5.946;2023-09-19T14:46:54;2.97;;;0.98;;
49310;SDS011;35177;45.900;5.946;2023-09-19T14:49:20;2.95;;;0.85;;
49310;SDS011;35177;45.900;5.946;2023-09-19T14:51:46;2.20;;;0.95;;
49310;SDS011;35177;45.900;5.946;2023-09-19T14:54:13;5.40;;;0.90;;
49310;SDS011;35177;45.900;5.946;2023-09-19T14:56:41;1.05;;;0.82;;
49310;SDS011;35177;45.900;5.946;2023-09-19T14:59:07;0.98;;;0.88;;
49310;SDS011;35177;45.900;5.946;2023-09-19T15:01:33;2.55;;;1.20;;
49310;SDS011;35177;45.900;5.946;2023-09-19T15:03:58;2.63;;;0.77;;
49310;SDS011;35177;45.900;5.946;2023-09-19T15:06:25;2.10;;;0.80;;
49310;SDS011;35177;45.900;5.946;2023-09-19T15:08:51;2.05;;;0.90;;
49310;SDS011;35177;45.900;5.946;2023-09-19T15:11:17;3.00;;;1.40;;
49310;SDS011;35177;45.900;5.946;2023-09-19T15:13:43;1.30;;;0.75;;
49310;SDS011;35177;45.900;5.946;2023-09-19T15:16:10;2.85;;;0.85;;
49310;SDS011;35177;45.900;5.946;2023-09-19T15:18:37;1.35;;;0.90;;
49310;SDS011;35177;45.900;5.946;2023-09-19T15:21:03;0.70;;;0.70;;
49310;SDS011;35177;45.900;5.946;2023-09-19T15:23:29;1.52;;;0.98;;
49310;SDS011;35177;45.900;5.946;2023-09-19T15:25:57;1.92;;;0.80;;
49310;SDS011;35177;45.900;5.946;2023-09-19T15:28:23;4.18;;;1.05;;
49310;SDS011;35177;45.900;5.946;2023-09-19T15:30:49;1.30;;;0.90;;
49310;SDS011;35177;45.900;5.946;2023-09-19T15:33:15;3.08;;;0.80;;
49310;SDS011;35177;45.900;5.946;2023-09-19T15:35:40;2.50;;;0.80;;
49310;SDS011;35177;45.900;5.946;2023-09-19T15:38:07;1.40;;;0.80;;
49310;SDS011;35177;45.900;5.946;2023-09-19T15:40:32;3.38;;;0.80;;
49310;SDS011;35177;45.900;5.946;2023-09-19T15:42:58;2.85;;;0.90;;
49310;SDS011;35177;45.900;5.946;2023-09-19T15:45:23;0.90;;;0.70;;
49310;SDS011;35177;45.900;5.946;2023-09-19T15:47:50;2.63;;;1.05;;
49310;SDS011;35177;45.900;5.946;2023-09-19T15:50:16;1.65;;;0.80;;
49310;SDS011;35177;45.900;5.946;2023-09-19T15:52:42;1.20;;;0.75;;
49310;SDS011;35177;45.900;5.946;2023-09-19T15:55:07;1.58;;;0.70;;